Observations for GLASGOW AIRPORT, United Kingdom (EGPF)

EGPF 230950Z AUTO 28011KT 250V310 9999 BKN028 15/08 Q1028   
EGPF 230920Z AUTO 27009KT 9999 OVC026 14/08 Q1029   
EGPF 230850Z AUTO 26009KT 230V290 9999 BKN027 13/08 Q1029   
EGPF 230820Z AUTO 27010KT 9999 BKN028 13/08 Q1029   
EGPF 230750Z AUTO 28010KT 250V320 9999 BKN026 14/07 Q1029   
EGPF 230720Z AUTO 26008KT 230V300 9999 BKN023 BKN033 13/08 Q1029
EGPF 230650Z AUTO 26009KT 9999 NCD 12/08 Q1029  
EGPF 230620Z AUTO 27011KT 9999 NCD 12/08 Q1028  
EGPF 230550Z AUTO 26010KT 9999 NCD 11/08 Q1029  
EGPF 230520Z AUTO 24008KT 9999 NCD 10/08 Q1029  
EGPF 230450Z AUTO 25008KT 9999 NCD 09/07 Q1029  
EGPF 230420Z AUTO 23009KT 9999 FEW033 09/07 Q1029   
EGPF 230350Z AUTO 24007KT 9999 NCD 09/07 Q1029  
EGPF 230320Z AUTO 24007KT 9999 FEW030 08/07 Q1029   
EGPF 230250Z AUTO 24008KT 9999 SCT025 BKN029 09/07 Q1030
EGPF 230220Z AUTO 22009KT 9999 BKN025 09/08 Q1030   
EGPF 230150Z AUTO 23008KT 9999 FEW027 09/07 Q1029   
EGPF 230120Z AUTO 24009KT 9999 FEW032 09/07 Q1030   
EGPF 230050Z AUTO 22008KT 9999 NCD 08/07 Q1030  
EGPF 230020Z AUTO 22008KT 9999 NCD 07/06 Q1030  
EGPF 222350Z AUTO 24008KT 9999 NCD 09/07 Q1030  
EGPF 222320Z AUTO 25006KT 9999 FEW030 10/07 Q1030   
EGPF 222250Z AUTO 26009KT 9999 NCD 10/07 Q1031  
EGPF 222220Z AUTO 23004KT 170V280 9999 NCD 10/07 Q1030  
EGPF 222150Z AUTO 27009KT 9999 NCD 11/08 Q1030  
EGPF 222120Z AUTO 26009KT 9999 NCD 11/08 Q1030  
EGPF 222050Z AUTO 26010KT 9999 NCD 12/08 Q1030  
EGPF 222020Z AUTO 27010KT 9999 NCD 13/08 Q1030  
EGPF 221950Z AUTO 27009KT 9999 NCD 14/08 Q1030  
EGPF 221920Z AUTO 26011KT 9999 NCD 14/08 Q1030  
EGPF 221850Z AUTO 27010KT 9999 NCD 14/08 Q1030  
EGPF 221820Z AUTO 26012KT 9999 FEW035 16/08 Q1030   
EGPF 221750Z AUTO 25012KT 9999 NCD 16/08 Q1030  
EGPF 221720Z AUTO 27010KT 9999 FEW034 16/09 Q1030   
EGPF 221650Z AUTO 28011KT 250V320 9999 FEW032 17/09 Q1030   
EGPF 221620Z AUTO 29012KT 260V320 9999 FEW031 17/09 Q1031   
EGPF 221550Z AUTO 29012KT 9999 SCT028 15/09 Q1031   
EGPF 221520Z AUTO 29013KT 260V340 9999 FEW029 17/10 Q1031   
EGPF 221450Z AUTO 28012KT 260V320 9999 SCT029 17/10 Q1031   
EGPF 221420Z AUTO 28011KT 9999 FEW030 16/09 Q1031   
EGPF 221350Z AUTO 29015KT 260V330 9999 SCT031 17/09 Q1031   
EGPF 221320Z AUTO 29013KT 9999 SCT034 17/09 Q1031   
EGPF 221250Z AUTO 29012KT 9999 FEW036 17/09 Q1032   
EGPF 221220Z AUTO 29011KT 250V330 9999 NCD 17/08 Q1031  
EGPF 221150Z AUTO 28010KT 240V320 9999 NCD 16/08 Q1032  
EGPF 221120Z AUTO 29010KT 9999 NCD 15/07 Q1032  
EGPF 221050Z AUTO 29011KT 9999 NCD 15/07 Q1032  
EGPF 221020Z AUTO 28011KT 250V310 9999 NCD 13/07 Q1032  
EGPF 220950Z AUTO 29012KT 9999 NCD 14/07 Q1032